オークランド の空港の天気 - METARとTAF

オークランド国際空港 ( NZAA / AKL ) - ニュージーランド オークランド|オークランド
飛行場実況気象(Metar)
観測時間10/19 12:30 NZDT (10/18 23:30 UTC)
風向・風速西南西 4m/s
視程10km以上
天気現象
なし
気温14℃
湿度55%
気圧1026hPa
METARNZAA 182330Z AUTO 24007KT 9999 NCD 14/05 Q1026 NOSIG
過去の天気等 Google飛行場航空写真 Wunderground天気予報

過去48時間のMETAR

飛行場予報(TAF)
発表時間: 10/19 12:12 NZDT (10/18 23:12 UTC)
予報対象時間: 19日13時 NZDT ~ 20日13時 NZDT
風向・風速西南西 3m/s
視程10km以上
なし
19日13時 NZDT ~ 19日15時 NZDT に徐々に
風向・風速西南西 8m/s
19日22時 NZDT から
風向・風速西南西 3m/s
視程10km以上
少しの雲 雲底高度 300m
全天の8割程度の雲 雲底高度 610m
20日4時 NZDT ~ 20日10時 NZDT に一時的に
全天の8割程度の雲 雲底高度 300m
20日10時 NZDT ~ 20日12時 NZDT に徐々に
風向・風速西南西 8m/s
TAF NZAA 182312Z 1900/2000 24005KT CAVOK
BECMG 1900/1902 24015KT
FM190900 24005KT 9999 FEW010 BKN020
TEMPO 1915/1921 BKN010
BECMG 1921/1923 24015KT